createdAt,value
2019-05-03T00:02:21.829Z,14.54
2019-05-03T00:05:02.270Z,14.55
2019-05-03T00:07:32.961Z,14.45
2019-05-03T00:10:04.901Z,14.42
2019-05-03T00:12:46.146Z,14.42
2019-05-03T00:15:25.453Z,14.45
2019-05-03T00:17:56.429Z,14.44
2019-05-03T00:20:27.399Z,14.42
2019-05-03T00:22:58.366Z,14.43
2019-05-03T00:25:29.329Z,14.41
2019-05-03T00:28:01.877Z,14.38
2019-05-03T00:30:33.054Z,14.36
2019-05-03T00:33:04.094Z,14.34
2019-05-03T00:35:36.711Z,14.36
2019-05-03T00:38:09.367Z,14.34
2019-05-03T00:40:41.674Z,14.34
2019-05-03T00:43:12.741Z,14.31
2019-05-03T00:45:43.720Z,14.29
2019-05-03T00:48:14.777Z,14.28
2019-05-03T00:50:45.754Z,14.27
2019-05-03T00:53:16.722Z,14.22
2019-05-03T00:55:47.708Z,14.20
2019-05-03T00:58:18.703Z,14.20
2019-05-03T01:00:49.667Z,14.17
2019-05-03T01:03:21.944Z,14.16
2019-05-03T01:05:53.084Z,14.16
2019-05-03T01:08:24.062Z,14.14
2019-05-03T01:10:55.049Z,14.12
2019-05-03T01:13:26.039Z,14.12
2019-05-03T01:16:02.808Z,14.10
2019-05-03T01:18:34.869Z,14.09
2019-05-03T01:21:05.916Z,14.06
2019-05-03T01:23:36.903Z,14.04
2019-05-03T01:26:07.876Z,14.05
2019-05-03T01:28:38.852Z,14.04
2019-05-03T01:31:11.866Z,14.03
2019-05-03T01:33:42.659Z,14.02
2019-05-03T01:36:13.681Z,14.00
2019-05-03T01:38:44.702Z,13.98
2019-05-03T01:41:15.698Z,13.98
2019-05-03T01:43:46.660Z,13.98
2019-05-03T01:46:17.648Z,13.98
2019-05-03T01:48:52.934Z,13.97
2019-05-03T01:51:35.801Z,13.96
2019-05-03T01:54:07.279Z,13.93
2019-05-03T01:56:38.246Z,13.89
2019-05-03T01:59:09.253Z,13.87
2019-05-03T02:01:44.601Z,13.86
2019-05-03T02:04:21.581Z,13.85
2019-05-03T02:06:52.558Z,13.81
2019-05-03T02:09:23.539Z,13.79
2019-05-03T02:11:54.615Z,13.77
2019-05-03T02:14:26.152Z,13.76
2019-05-03T02:16:57.310Z,13.74
2019-05-03T02:19:28.288Z,13.72
2019-05-03T02:21:59.290Z,13.72
2019-05-03T02:24:30.260Z,13.69
2019-05-03T02:27:02.245Z,13.67
2019-05-03T02:29:33.284Z,13.65
2019-05-03T02:32:04.274Z,13.61
2019-05-03T02:34:35.228Z,13.58
2019-05-03T02:37:06.295Z,13.55
2019-05-03T02:39:37.263Z,13.50
2019-05-03T02:42:11.593Z,13.51
2019-05-03T02:44:41.322Z,13.48
2019-05-03T02:47:16.331Z,13.45
2019-05-03T02:49:48.963Z,13.41
2019-05-03T02:52:36.731Z,13.38
2019-05-03T02:55:15.625Z,13.35
2019-05-03T02:57:46.577Z,13.29
2019-05-03T03:00:20.279Z,13.26
2019-05-03T03:02:51.507Z,13.22
2019-05-03T03:05:25.279Z,13.20
2019-05-03T03:07:56.245Z,13.20
2019-05-03T03:10:27.897Z,13.17
2019-05-03T03:13:00.465Z,13.17
2019-05-03T03:15:36.127Z,13.15
2019-05-03T03:18:06.338Z,13.13
2019-05-03T03:20:39.170Z,13.05
2019-05-03T03:23:14.540Z,13.03
2019-05-03T03:25:46.419Z,13.01
2019-05-03T03:28:19.218Z,13.00
2019-05-03T03:31:31.062Z,13.00
2019-05-03T03:34:08.513Z,12.99
2019-05-03T03:37:00.822Z,12.89
2019-05-03T03:39:25.719Z,12.88
2019-05-03T03:41:56.259Z,12.86
2019-05-03T03:44:28.309Z,12.85
2019-05-03T03:47:00.070Z,12.86
2019-05-03T03:49:31.361Z,12.86
2019-05-03T03:52:05.816Z,12.86
2019-05-03T03:54:35.722Z,12.88
2019-05-03T03:57:08.183Z,12.86
2019-05-03T03:59:39.354Z,12.86
2019-05-03T04:02:10.416Z,12.84
2019-05-03T04:04:41.453Z,12.83
2019-05-03T04:07:12.497Z,12.81
2019-05-03T04:09:45.689Z,12.81
2019-05-03T04:12:16.865Z,12.79
2019-05-03T04:14:49.643Z,12.77
2019-05-03T04:17:26.367Z,12.76
2019-05-03T04:19:59.286Z,12.74
2019-05-03T04:22:30.428Z,12.71
2019-05-03T04:25:01.411Z,12.71
2019-05-03T04:27:32.558Z,12.70
2019-05-03T04:30:05.868Z,12.70
2019-05-03T04:32:37.109Z,12.70
2019-05-03T04:35:08.240Z,12.68
2019-05-03T04:37:39.208Z,12.68
2019-05-03T04:40:10.275Z,12.66
2019-05-03T04:42:41.235Z,12.65
2019-05-03T04:45:12.241Z,12.65
2019-05-03T04:47:43.218Z,12.65
2019-05-03T04:50:16.282Z,12.67
2019-05-03T04:52:47.599Z,12.67
2019-05-03T04:55:18.617Z,12.67
2019-05-03T04:57:50.559Z,12.66
2019-05-03T05:00:21.803Z,12.67
2019-05-03T05:02:55.017Z,12.67
2019-05-03T05:05:26.437Z,12.69
2019-05-03T05:07:57.782Z,12.69
2019-05-03T05:10:28.758Z,12.68
2019-05-03T05:12:59.761Z,12.68
2019-05-03T05:15:30.743Z,12.70
2019-05-03T05:18:19.749Z,12.70
2019-05-03T05:20:55.489Z,12.70
2019-05-03T05:23:26.680Z,12.69
2019-05-03T05:26:08.236Z,12.71
2019-05-03T05:28:49.677Z,12.76
2019-05-03T05:31:20.688Z,12.79
2019-05-03T05:33:51.666Z,12.82
2019-05-03T05:36:24.351Z,12.85
2019-05-03T05:38:55.489Z,12.89
2019-05-03T05:41:26.443Z,12.91
2019-05-03T05:43:57.431Z,12.95
2019-05-03T05:46:30.078Z,12.97
2019-05-03T05:49:04.315Z,12.99
2019-05-03T05:51:35.416Z,13.01
2019-05-03T05:54:06.501Z,13.01
2019-05-03T05:56:39.130Z,13.01
2019-05-03T05:59:20.689Z,13.03
2019-05-03T06:01:55.447Z,13.04
2019-05-03T06:04:25.985Z,13.05
2019-05-03T06:07:14.914Z,13.08
2019-05-03T06:09:47.568Z,13.12
2019-05-03T06:12:20.201Z,13.12
2019-05-03T06:14:54.448Z,13.15
2019-05-03T06:17:34.800Z,13.18
2019-05-03T06:20:15.644Z,13.19
2019-05-03T06:22:48.247Z,13.21
2019-05-03T06:25:20.867Z,13.25
2019-05-03T06:27:51.840Z,13.27
2019-05-03T06:30:24.901Z,13.30
2019-05-03T06:32:55.965Z,13.36
2019-05-03T06:35:26.938Z,13.38
2019-05-03T06:37:57.918Z,13.39
2019-05-03T06:40:28.909Z,13.37
2019-05-03T06:43:08.365Z,13.39
2019-05-03T06:45:32.665Z,13.39
2019-05-03T06:48:05.401Z,13.40
2019-05-03T06:50:36.487Z,13.39
2019-05-03T06:53:12.686Z,13.40
2019-05-03T06:55:46.343Z,13.45
2019-05-03T06:58:12.844Z,13.48
2019-05-03T07:00:51.206Z,13.53
2019-05-03T07:03:29.582Z,13.59
2019-05-03T07:06:16.898Z,13.61
2019-05-03T07:09:05.505Z,13.63
2019-05-03T07:11:38.978Z,13.65
2019-05-03T07:14:12.948Z,13.67
2019-05-03T07:16:44.386Z,13.70
2019-05-03T07:19:16.521Z,13.70
2019-05-03T07:21:47.483Z,13.74
2019-05-03T07:24:18.456Z,13.80
2019-05-03T07:26:49.479Z,13.86
2019-05-03T07:29:20.514Z,13.93
2019-05-03T07:31:51.527Z,13.96
2019-05-03T07:34:24.608Z,13.98
2019-05-03T07:36:55.653Z,14.01
2019-05-03T07:39:26.627Z,14.02
2019-05-03T07:41:57.651Z,14.03
2019-05-03T07:44:28.627Z,14.04
2019-05-03T07:46:59.601Z,14.06
2019-05-03T07:49:32.662Z,14.07
2019-05-03T07:52:05.608Z,14.10
2019-05-03T07:54:36.337Z,14.13
2019-05-03T07:57:25.623Z,14.17
2019-05-03T07:59:56.764Z,14.21
2019-05-03T08:02:27.791Z,14.22
2019-05-03T08:04:58.727Z,14.26
2019-05-03T08:07:29.802Z,14.27
2019-05-03T08:10:00.893Z,14.28
2019-05-03T08:12:31.877Z,14.24
2019-05-03T08:15:02.849Z,14.20
2019-05-03T08:17:34.713Z,14.23
2019-05-03T08:20:07.415Z,14.34
2019-05-03T08:22:38.400Z,14.49
2019-05-03T08:25:09.516Z,14.61
2019-05-03T08:27:40.508Z,14.69
2019-05-03T08:30:14.771Z,14.76
2019-05-03T08:32:47.400Z,14.80
2019-05-03T08:35:25.923Z,14.80
2019-05-03T08:37:58.596Z,14.83
2019-05-03T08:40:31.228Z,14.84
2019-05-03T08:43:02.252Z,14.87
2019-05-03T08:45:34.715Z,14.90
2019-05-03T08:48:06.193Z,14.95
2019-05-03T08:50:38.094Z,15.00
2019-05-03T08:53:09.088Z,15.02
2019-05-03T08:55:40.097Z,15.01
2019-05-03T08:58:11.082Z,14.98
2019-05-03T09:00:45.487Z,14.95
2019-05-03T09:03:16.651Z,14.92
2019-05-03T09:05:47.661Z,14.94
2019-05-03T09:08:18.621Z,14.98
2019-05-03T09:10:59.857Z,15.07
2019-05-03T09:13:34.937Z,15.21
2019-05-03T09:16:05.930Z,15.31
2019-05-03T09:18:37.122Z,15.42
2019-05-03T09:21:08.130Z,15.50
2019-05-03T09:23:39.128Z,15.54
2019-05-03T09:26:10.131Z,15.53
2019-05-03T09:28:41.139Z,15.51
2019-05-03T09:31:12.105Z,15.54
2019-05-03T09:33:45.057Z,15.56
2019-05-03T09:36:15.775Z,15.52
2019-05-03T09:38:46.777Z,15.46
2019-05-03T09:41:17.735Z,15.43
2019-05-03T09:43:48.776Z,15.47
2019-05-03T09:46:19.768Z,15.45
2019-05-03T09:48:51.442Z,15.40
2019-05-03T09:51:22.425Z,15.34
2019-05-03T09:53:57.776Z,15.26
2019-05-03T09:56:30.380Z,15.21
2019-05-03T09:59:01.374Z,15.12
2019-05-03T10:01:34.556Z,15.06
2019-05-03T10:04:05.556Z,14.98
2019-05-03T10:06:36.611Z,14.91
2019-05-03T10:09:07.591Z,14.88
2019-05-03T10:11:38.588Z,14.85
2019-05-03T10:14:09.753Z,14.86
2019-05-03T10:16:44.758Z,14.95
2019-05-03T10:19:16.256Z,15.06
2019-05-03T10:21:48.810Z,15.20
2019-05-03T10:24:19.863Z,15.33
2019-05-03T10:26:51.604Z,15.38
2019-05-03T10:29:22.617Z,15.45
2019-05-03T10:32:01.325Z,15.52
2019-05-03T10:34:32.302Z,15.59
2019-05-03T10:37:05.188Z,15.62
2019-05-03T10:39:36.323Z,15.67
2019-05-03T10:42:07.357Z,15.75
2019-05-03T10:44:38.356Z,15.86
2019-05-03T10:47:09.404Z,15.90
2019-05-03T10:49:40.394Z,15.91
2019-05-03T10:52:12.138Z,15.90
2019-05-03T10:54:43.127Z,15.84
2019-05-03T10:57:16.818Z,15.76
2019-05-03T10:59:48.847Z,15.65
2019-05-03T11:02:30.525Z,15.58
2019-05-03T11:05:01.535Z,15.55
2019-05-03T11:07:34.482Z,15.53
2019-05-03T11:10:08.005Z,15.54
2019-05-03T11:12:38.968Z,15.58
2019-05-03T11:15:10.033Z,15.60
2019-05-03T11:17:41.005Z,15.58
2019-05-03T11:20:12.091Z,15.55
2019-05-03T11:22:44.912Z,15.50
2019-05-03T11:25:15.776Z,15.44
2019-05-03T11:27:48.411Z,15.40
2019-05-03T11:30:19.455Z,15.37
2019-05-03T11:32:52.074Z,15.33
2019-05-03T11:35:24.786Z,15.31
2019-05-03T11:37:57.412Z,15.32
2019-05-03T11:40:28.419Z,15.35
2019-05-03T11:43:01.212Z,15.42
2019-05-03T11:45:32.336Z,15.51
2019-05-03T11:48:03.384Z,15.59
2019-05-03T11:50:34.826Z,15.61
2019-05-03T11:53:05.795Z,15.61
2019-05-03T11:55:36.948Z,15.59
2019-05-03T11:58:09.550Z,15.56
2019-05-03T12:00:41.308Z,15.53
2019-05-03T12:03:19.449Z,15.48
2019-05-03T12:05:52.058Z,15.46
2019-05-03T12:08:24.959Z,15.47
2019-05-03T12:11:01.056Z,15.47
2019-05-03T12:13:31.746Z,15.49
2019-05-03T12:16:14.920Z,15.54
2019-05-03T12:18:48.913Z,15.63
2019-05-03T12:21:11.047Z,15.76
2019-05-03T12:23:44.913Z,15.87
2019-05-03T12:26:17.483Z,15.95
2019-05-03T12:28:47.762Z,16.01
2019-05-03T12:31:30.353Z,16.04
2019-05-03T12:33:51.428Z,16.12
2019-05-03T12:36:24.735Z,16.28
2019-05-03T12:38:55.806Z,16.45
2019-05-03T12:41:26.768Z,16.65
2019-05-03T12:43:57.732Z,16.85
2019-05-03T12:46:28.763Z,17.05
2019-05-03T12:48:59.738Z,17.12
2019-05-03T12:51:30.823Z,17.09
2019-05-03T12:54:01.825Z,17.01
2019-05-03T12:56:35.650Z,16.93
2019-05-03T12:59:07.154Z,16.84
2019-05-03T13:01:49.898Z,16.74
2019-05-03T13:04:24.673Z,16.64
2019-05-03T13:06:56.869Z,16.52
2019-05-03T13:09:27.827Z,16.41
2019-05-03T13:11:59.313Z,16.32
2019-05-03T13:14:30.372Z,16.26
2019-05-03T13:17:01.543Z,16.22
2019-05-03T13:19:34.793Z,16.18
2019-05-03T13:22:05.266Z,16.17
2019-05-03T13:24:36.267Z,16.20
2019-05-03T13:27:07.835Z,16.23
2019-05-03T13:29:38.806Z,16.24
2019-05-03T13:32:09.784Z,16.22
2019-05-03T13:34:41.409Z,16.20
2019-05-03T13:37:12.420Z,16.23
2019-05-03T13:39:45.159Z,16.27
2019-05-03T13:42:16.271Z,16.25
2019-05-03T13:44:47.238Z,16.22
2019-05-03T13:47:19.798Z,16.19
2019-05-03T13:49:50.798Z,16.16
2019-05-03T13:52:21.763Z,16.11
2019-05-03T13:54:54.540Z,16.04
2019-05-03T13:57:25.642Z,15.98
2019-05-03T13:59:56.651Z,15.91
2019-05-03T14:02:27.652Z,15.86
2019-05-03T14:04:58.663Z,15.81
2019-05-03T14:07:29.617Z,15.76
2019-05-03T14:10:00.590Z,15.71
2019-05-03T14:12:31.566Z,15.70
2019-05-03T14:15:02.720Z,15.67
2019-05-03T14:17:33.686Z,15.65
2019-05-03T14:20:10.076Z,15.64
2019-05-03T14:22:45.477Z,15.62
2019-05-03T14:25:16.463Z,15.59
2019-05-03T14:27:47.428Z,15.56
2019-05-03T14:30:19.658Z,15.53
2019-05-03T14:32:50.644Z,15.51
2019-05-03T14:35:21.621Z,15.49
2019-05-03T14:37:54.916Z,15.48
2019-05-03T14:40:25.309Z,15.46
2019-05-03T14:42:56.315Z,15.46
2019-05-03T14:45:27.326Z,15.48
2019-05-03T14:47:58.378Z,15.48
2019-05-03T14:50:29.381Z,15.48
2019-05-03T14:53:00.351Z,15.47
2019-05-03T14:55:38.708Z,15.49
2019-05-03T14:58:09.476Z,15.52
2019-05-03T15:00:42.110Z,15.55
2019-05-03T15:03:15.134Z,15.58
2019-05-03T15:05:46.190Z,15.62
2019-05-03T15:08:17.473Z,15.65
2019-05-03T15:10:48.453Z,15.71
2019-05-03T15:13:19.439Z,15.77
2019-05-03T15:15:50.428Z,15.84
2019-05-03T15:18:21.388Z,15.88
2019-05-03T15:20:52.365Z,15.93
2019-05-03T15:23:25.214Z,15.98
2019-05-03T15:25:56.052Z,16.06
2019-05-03T15:28:27.019Z,16.15
2019-05-03T15:30:58.262Z,16.22
2019-05-03T15:33:29.248Z,16.32
2019-05-03T15:36:00.223Z,16.39
2019-05-03T15:38:31.205Z,16.46
2019-05-03T15:41:02.174Z,16.50
2019-05-03T15:43:51.297Z,16.51
2019-05-03T15:46:35.709Z,16.51
2019-05-03T15:49:06.684Z,16.47
2019-05-03T15:51:37.656Z,16.43
2019-05-03T15:54:08.631Z,16.43
2019-05-03T15:56:39.598Z,16.45
2019-05-03T15:59:10.585Z,16.43
2019-05-03T16:01:41.555Z,16.41
2019-05-03T16:04:14.221Z,16.39
2019-05-03T16:06:45.956Z,16.36
2019-05-03T16:09:16.957Z,16.32
2019-05-03T16:11:47.932Z,16.27
2019-05-03T16:14:18.906Z,16.24
2019-05-03T16:16:49.883Z,16.21
2019-05-03T16:19:20.886Z,16.19
2019-05-03T16:21:51.841Z,16.17
2019-05-03T16:24:24.775Z,16.15
2019-05-03T16:27:15.013Z,16.11
2019-05-03T16:29:46.290Z,16.07
2019-05-03T16:32:17.259Z,16.04
2019-05-03T16:34:48.233Z,16.04
2019-05-03T16:37:19.216Z,16.03
2019-05-03T16:39:50.227Z,16.00
2019-05-03T16:42:21.198Z,15.97
2019-05-03T16:44:52.198Z,15.94
2019-05-03T16:47:24.840Z,15.93
2019-05-03T16:49:56.055Z,15.93
2019-05-03T16:52:27.048Z,15.91
2019-05-03T16:54:58.070Z,15.90
2019-05-03T16:57:29.045Z,15.88
2019-05-03T17:00:00.660Z,15.85
2019-05-03T17:02:31.667Z,15.80
2019-05-03T17:05:10.258Z,15.78
2019-05-03T17:07:59.252Z,15.76
2019-05-03T17:10:37.755Z,15.73
2019-05-03T17:13:09.149Z,15.64
2019-05-03T17:15:40.132Z,15.59
2019-05-03T17:18:11.197Z,15.57
2019-05-03T17:20:42.189Z,15.55
2019-05-03T17:23:15.316Z,15.51
2019-05-03T17:25:45.845Z,15.49
2019-05-03T17:28:16.832Z,15.43
2019-05-03T17:30:47.839Z,15.39
2019-05-03T17:33:18.815Z,15.35
2019-05-03T17:35:49.784Z,15.31
2019-05-03T17:38:20.772Z,15.25
2019-05-03T17:40:58.827Z,15.18
2019-05-03T17:43:31.432Z,15.16
2019-05-03T17:46:04.439Z,15.11
2019-05-03T17:48:35.498Z,15.08
2019-05-03T17:51:06.539Z,15.06
2019-05-03T17:53:37.309Z,15.04
2019-05-03T17:56:21.962Z,15.04
2019-05-03T17:59:00.209Z,15.03
2019-05-03T18:01:32.790Z,15.00
2019-05-03T18:04:15.734Z,14.98
2019-05-03T18:07:04.995Z,14.98
2019-05-03T18:09:40.736Z,14.94
2019-05-03T18:12:11.692Z,14.89
2019-05-03T18:14:42.658Z,14.87
2019-05-03T18:17:14.751Z,14.86
2019-05-03T18:19:47.820Z,14.86
2019-05-03T18:22:18.467Z,14.84
2019-05-03T18:24:49.449Z,14.83
2019-05-03T18:27:20.413Z,14.84
2019-05-03T18:29:51.388Z,14.83
2019-05-03T18:32:22.359Z,14.82
2019-05-03T18:34:54.624Z,14.83
2019-05-03T18:37:25.716Z,14.82
2019-05-03T18:39:56.721Z,14.83
2019-05-03T18:42:30.693Z,14.83
2019-05-03T18:45:09.859Z,14.83
2019-05-03T18:47:41.078Z,14.79
2019-05-03T18:50:12.145Z,14.78
2019-05-03T18:52:44.840Z,14.77
2019-05-03T18:55:15.913Z,14.75
2019-05-03T18:57:46.902Z,14.72
2019-05-03T19:00:19.766Z,14.72
2019-05-03T19:02:50.903Z,14.69
2019-05-03T19:05:24.332Z,14.68
2019-05-03T19:07:59.664Z,14.67
2019-05-03T19:10:38.281Z,14.64
2019-05-03T19:13:16.466Z,14.62
2019-05-03T19:15:47.452Z,14.59
2019-05-03T19:18:20.052Z,14.56
2019-05-03T19:20:51.022Z,14.55
2019-05-03T19:23:22.001Z,14.53
2019-05-03T19:25:55.142Z,14.55
2019-05-03T19:28:25.644Z,14.56
2019-05-03T19:30:56.617Z,14.56
2019-05-03T19:33:27.586Z,14.56
2019-05-03T19:36:00.241Z,14.55
2019-05-03T19:38:31.440Z,14.55
2019-05-03T19:41:02.409Z,14.54
2019-05-03T19:43:35.579Z,14.54
2019-05-03T19:46:07.343Z,14.54
2019-05-03T19:48:38.703Z,14.53
2019-05-03T19:51:09.690Z,14.53
2019-05-03T19:53:55.165Z,14.51
2019-05-03T19:56:26.295Z,14.50
2019-05-03T19:58:58.906Z,14.45
2019-05-03T20:01:31.534Z,14.45
2019-05-03T20:04:05.896Z,14.44
2019-05-03T20:06:55.710Z,14.43
2019-05-03T20:09:27.723Z,14.36
2019-05-03T20:11:59.049Z,14.30
2019-05-03T20:14:30.149Z,14.30
2019-05-03T20:17:03.953Z,14.29
2019-05-03T20:19:34.753Z,14.27
2019-05-03T20:22:05.820Z,14.28
2019-05-03T20:24:36.839Z,14.27
2019-05-03T20:27:07.809Z,14.26
2019-05-03T20:29:38.820Z,14.24
2019-05-03T20:32:09.787Z,14.24
2019-05-03T20:34:40.780Z,14.22
2019-05-03T20:37:11.889Z,14.21
2019-05-03T20:39:42.868Z,14.18
2019-05-03T20:42:15.481Z,14.14
2019-05-03T20:44:48.095Z,14.11
2019-05-03T20:47:25.239Z,14.07
2019-05-03T20:50:15.669Z,14.04
2019-05-03T20:52:46.926Z,13.97
2019-05-03T20:55:17.855Z,13.90
2019-05-03T20:57:48.817Z,13.87
2019-05-03T21:00:21.551Z,13.86
2019-05-03T21:02:54.782Z,13.83
2019-05-03T21:05:30.646Z,13.81
2019-05-03T21:07:57.913Z,13.79
2019-05-03T21:10:28.897Z,13.78
2019-05-03T21:12:59.877Z,13.76
2019-05-03T21:15:32.479Z,13.75
2019-05-03T21:18:11.056Z,13.75
2019-05-03T21:20:58.400Z,13.73
2019-05-03T21:23:35.207Z,13.71
2019-05-03T21:26:13.359Z,13.66
2019-05-03T21:28:44.812Z,13.62
2019-05-03T21:31:15.722Z,13.62
2019-05-03T21:33:46.790Z,13.63
2019-05-03T21:36:17.771Z,13.65
2019-05-03T21:38:48.752Z,13.66
2019-05-03T21:41:19.731Z,13.68
2019-05-03T21:43:50.702Z,13.69
2019-05-03T21:46:36.819Z,13.71
2019-05-03T21:49:09.470Z,13.71
2019-05-03T21:51:40.441Z,13.68
2019-05-03T21:54:11.410Z,13.70
2019-05-03T21:56:44.554Z,13.70
2019-05-03T21:59:15.104Z,13.69
2019-05-03T22:01:47.289Z,13.66
2019-05-03T22:04:18.356Z,13.65
2019-05-03T22:06:49.332Z,13.62
2019-05-03T22:09:20.333Z,13.61
2019-05-03T22:11:52.272Z,13.57
2019-05-03T22:14:25.026Z,13.53
2019-05-03T22:17:00.621Z,13.51
2019-05-03T22:19:31.627Z,13.51
2019-05-03T22:22:20.234Z,13.48
2019-05-03T22:24:52.220Z,13.48
2019-05-03T22:27:24.623Z,13.43
2019-05-03T22:29:55.778Z,13.42
2019-05-03T22:32:27.117Z,13.41
2019-05-03T22:34:58.260Z,13.40
2019-05-03T22:37:29.261Z,13.35
2019-05-03T22:40:00.303Z,13.29
2019-05-03T22:42:31.327Z,13.26
2019-05-03T22:45:04.538Z,13.20
2019-05-03T22:47:35.772Z,13.18
2019-05-03T22:50:07.003Z,13.15
2019-05-03T22:52:37.995Z,13.13
2019-05-03T22:55:08.974Z,13.10
2019-05-03T22:57:39.942Z,13.08
2019-05-03T23:00:10.938Z,13.05
2019-05-03T23:02:41.913Z,13.01
2019-05-03T23:05:12.979Z,12.97
2019-05-03T23:07:44.278Z,12.93
2019-05-03T23:10:17.407Z,12.92
2019-05-03T23:12:48.577Z,12.91
2019-05-03T23:15:19.576Z,12.92
2019-05-03T23:17:50.543Z,12.93
2019-05-03T23:20:39.585Z,12.93
2019-05-03T23:23:12.193Z,12.93
2019-05-03T23:25:44.871Z,12.90
2019-05-03T23:28:15.933Z,12.89
2019-05-03T23:30:46.920Z,12.90
2019-05-03T23:33:17.890Z,12.91
2019-05-03T23:35:48.887Z,12.92
2019-05-03T23:38:19.853Z,12.91
2019-05-03T23:40:50.863Z,12.90
2019-05-03T23:43:21.835Z,12.86
2019-05-03T23:45:54.486Z,12.83
2019-05-03T23:48:25.598Z,12.82
2019-05-03T23:50:58.352Z,12.80
2019-05-03T23:53:29.326Z,12.78
2019-05-03T23:56:04.596Z,12.77
2019-05-03T23:58:35.580Z,12.76
